sensor_id;sensor_type;location;lat;lon;timestamp;P1;durP1;ratioP1;P2;durP2;ratioP2
52015;SDS011;38032;53.326;6.472;2023-05-10T00:01:26;15.93;;;11.07;;
52015;SDS011;38032;53.326;6.472;2023-05-10T00:03:52;13.82;;;11.10;;
52015;SDS011;38032;53.326;6.472;2023-05-10T00:06:18;12.68;;;9.85;;
52015;SDS011;38032;53.326;6.472;2023-05-10T00:08:44;13.02;;;9.13;;
52015;SDS011;38032;53.326;6.472;2023-05-10T00:11:10;13.63;;;10.10;;
52015;SDS011;38032;53.326;6.472;2023-05-10T00:13:36;13.18;;;10.63;;
52015;SDS011;38032;53.326;6.472;2023-05-10T00:16:02;12.90;;;10.20;;
52015;SDS011;38032;53.326;6.472;2023-05-10T00:18:28;14.30;;;9.88;;
52015;SDS011;38032;53.326;6.472;2023-05-10T00:20:54;13.55;;;10.07;;
52015;SDS011;38032;53.326;6.472;2023-05-10T00:23:19;14.20;;;10.15;;
52015;SDS011;38032;53.326;6.472;2023-05-10T00:25:45;12.90;;;9.85;;
52015;SDS011;38032;53.326;6.472;2023-05-10T00:28:11;14.02;;;9.93;;
52015;SDS011;38032;53.326;6.472;2023-05-10T00:30:37;11.77;;;9.43;;
52015;SDS011;38032;53.326;6.472;2023-05-10T00:33:03;13.10;;;10.32;;
52015;SDS011;38032;53.326;6.472;2023-05-10T00:35:28;14.10;;;11.15;;
52015;SDS011;38032;53.326;6.472;2023-05-10T00:37:54;12.30;;;9.40;;
52015;SDS011;38032;53.326;6.472;2023-05-10T00:40:20;12.55;;;10.13;;
52015;SDS011;38032;53.326;6.472;2023-05-10T00:42:46;13.88;;;10.35;;
52015;SDS011;38032;53.326;6.472;2023-05-10T00:45:12;12.18;;;9.65;;
52015;SDS011;38032;53.326;6.472;2023-05-10T00:47:38;12.43;;;10.02;;
52015;SDS011;38032;53.326;6.472;2023-05-10T00:50:05;12.70;;;9.73;;
52015;SDS011;38032;53.326;6.472;2023-05-10T00:52:31;13.45;;;10.65;;
52015;SDS011;38032;53.326;6.472;2023-05-10T00:54:57;13.18;;;10.35;;
52015;SDS011;38032;53.326;6.472;2023-05-10T00:57:24;13.60;;;9.73;;
52015;SDS011;38032;53.326;6.472;2023-05-10T00:59:50;12.45;;;8.95;;
52015;SDS011;38032;53.326;6.472;2023-05-10T01:02:16;11.77;;;8.70;;
52015;SDS011;38032;53.326;6.472;2023-05-10T01:04:42;9.40;;;7.80;;
52015;SDS011;38032;53.326;6.472;2023-05-10T01:07:08;11.88;;;8.43;;
52015;SDS011;38032;53.326;6.472;2023-05-10T01:09:34;8.15;;;6.90;;
52015;SDS011;38032;53.326;6.472;2023-05-10T01:12:00;9.25;;;6.85;;
52015;SDS011;38032;53.326;6.472;2023-05-10T01:14:27;8.05;;;6.57;;
52015;SDS011;38032;53.326;6.472;2023-05-10T01:16:53;8.70;;;7.10;;
52015;SDS011;38032;53.326;6.472;2023-05-10T01:19:22;7.95;;;6.72;;
52015;SDS011;38032;53.326;6.472;2023-05-10T01:21:58;9.00;;;6.95;;
52015;SDS011;38032;53.326;6.472;2023-05-10T01:27:39;11.07;;;7.82;;
52015;SDS011;38032;53.326;6.472;2023-05-10T01:30:25;9.43;;;8.00;;
52015;SDS011;38032;53.326;6.472;2023-05-10T01:33:01;10.60;;;7.50;;
52015;SDS011;38032;53.326;6.472;2023-05-10T01:35:45;8.90;;;7.63;;
52015;SDS011;38032;53.326;6.472;2023-05-10T01:38:18;10.63;;;7.72;;
52015;SDS011;38032;53.326;6.472;2023-05-10T01:41:18;10.77;;;8.82;;
52015;SDS011;38032;53.326;6.472;2023-05-10T01:43:57;10.45;;;8.48;;
52015;SDS011;38032;53.326;6.472;2023-05-10T01:46:28;10.85;;;7.97;;
52015;SDS011;38032;53.326;6.472;2023-05-10T01:49:03;9.73;;;8.30;;
52015;SDS011;38032;53.326;6.472;2023-05-10T01:51:36;9.27;;;8.05;;
52015;SDS011;38032;53.326;6.472;2023-05-10T01:54:07;10.40;;;8.85;;
52015;SDS011;38032;53.326;6.472;2023-05-10T01:56:35;9.93;;;8.02;;
52015;SDS011;38032;53.326;6.472;2023-05-10T01:59:04;11.55;;;8.60;;
52015;SDS011;38032;53.326;6.472;2023-05-10T02:01:33;12.55;;;8.90;;
52015;SDS011;38032;53.326;6.472;2023-05-10T02:04:03;11.65;;;8.77;;
52015;SDS011;38032;53.326;6.472;2023-05-10T02:06:31;12.82;;;9.35;;
52015;SDS011;38032;53.326;6.472;2023-05-10T02:08:58;11.55;;;9.02;;
52015;SDS011;38032;53.326;6.472;2023-05-10T02:11:27;12.13;;;9.48;;
52015;SDS011;38032;53.326;6.472;2023-05-10T02:13:54;10.57;;;8.88;;
52015;SDS011;38032;53.326;6.472;2023-05-10T02:16:22;12.00;;;9.40;;
52015;SDS011;38032;53.326;6.472;2023-05-10T02:18:51;9.63;;;8.63;;
52015;SDS011;38032;53.326;6.472;2023-05-10T02:21:20;9.45;;;8.45;;
52015;SDS011;38032;53.326;6.472;2023-05-10T02:23:47;10.85;;;8.60;;
52015;SDS011;38032;53.326;6.472;2023-05-10T02:26:15;9.85;;;8.40;;
52015;SDS011;38032;53.326;6.472;2023-05-10T02:28:43;11.52;;;8.50;;
52015;SDS011;38032;53.326;6.472;2023-05-10T02:31:10;9.38;;;8.07;;
52015;SDS011;38032;53.326;6.472;2023-05-10T02:33:37;9.32;;;7.97;;
52015;SDS011;38032;53.326;6.472;2023-05-10T02:36:05;9.80;;;7.90;;
52015;SDS011;38032;53.326;6.472;2023-05-10T02:38:34;10.18;;;8.00;;
52015;SDS011;38032;53.326;6.472;2023-05-10T02:41:01;8.90;;;8.00;;
52015;SDS011;38032;53.326;6.472;2023-05-10T02:43:30;13.18;;;8.70;;
52015;SDS011;38032;53.326;6.472;2023-05-10T02:45:58;9.75;;;8.40;;
52015;SDS011;38032;53.326;6.472;2023-05-10T02:48:24;9.77;;;8.23;;
52015;SDS011;38032;53.326;6.472;2023-05-10T02:50:50;10.13;;;8.80;;
52015;SDS011;38032;53.326;6.472;2023-05-10T02:53:22;11.35;;;8.93;;
52015;SDS011;38032;53.326;6.472;2023-05-10T02:55:56;13.77;;;9.38;;
52015;SDS011;38032;53.326;6.472;2023-05-10T02:58:24;13.82;;;10.05;;
52015;SDS011;38032;53.326;6.472;2023-05-10T03:00:51;13.40;;;9.77;;
52015;SDS011;38032;53.326;6.472;2023-05-10T03:03:17;13.35;;;9.63;;
52015;SDS011;38032;53.326;6.472;2023-05-10T03:05:45;13.30;;;10.23;;
52015;SDS011;38032;53.326;6.472;2023-05-10T03:08:10;13.48;;;10.25;;
52015;SDS011;38032;53.326;6.472;2023-05-10T03:10:38;14.65;;;9.57;;
52015;SDS011;38032;53.326;6.472;2023-05-10T03:13:13;13.02;;;9.70;;
52015;SDS011;38032;53.326;6.472;2023-05-10T03:18:37;17.35;;;11.80;;
52015;SDS011;38032;53.326;6.472;2023-05-10T03:21:17;14.20;;;9.95;;
52015;SDS011;38032;53.326;6.472;2023-05-10T03:23:46;16.20;;;10.93;;
52015;SDS011;38032;53.326;6.472;2023-05-10T03:26:17;13.75;;;9.93;;
52015;SDS011;38032;53.326;6.472;2023-05-10T03:28:48;15.07;;;10.20;;
52015;SDS011;38032;53.326;6.472;2023-05-10T03:31:16;14.15;;;9.93;;
52015;SDS011;38032;53.326;6.472;2023-05-10T03:33:46;15.20;;;10.15;;
52015;SDS011;38032;53.326;6.472;2023-05-10T03:36:13;11.90;;;9.95;;
52015;SDS011;38032;53.326;6.472;2023-05-10T03:38:39;10.95;;;9.50;;
52015;SDS011;38032;53.326;6.472;2023-05-10T03:41:05;11.32;;;9.95;;
52015;SDS011;38032;53.326;6.472;2023-05-10T03:43:31;12.63;;;9.48;;
52015;SDS011;38032;53.326;6.472;2023-05-10T03:45:57;11.95;;;9.68;;
52015;SDS011;38032;53.326;6.472;2023-05-10T03:48:23;11.50;;;9.40;;
52015;SDS011;38032;53.326;6.472;2023-05-10T03:50:48;9.77;;;8.68;;
52015;SDS011;38032;53.326;6.472;2023-05-10T03:53:15;10.68;;;8.98;;
52015;SDS011;38032;53.326;6.472;2023-05-10T03:55:41;9.85;;;8.73;;
52015;SDS011;38032;53.326;6.472;2023-05-10T03:58:06;11.60;;;8.55;;
52015;SDS011;38032;53.326;6.472;2023-05-10T04:00:35;8.85;;;7.90;;
52015;SDS011;38032;53.326;6.472;2023-05-10T04:03:02;8.98;;;8.05;;
52015;SDS011;38032;53.326;6.472;2023-05-10T04:05:28;11.65;;;8.98;;
52015;SDS011;38032;53.326;6.472;2023-05-10T04:07:54;9.60;;;8.60;;
52015;SDS011;38032;53.326;6.472;2023-05-10T04:10:20;9.52;;;8.43;;
52015;SDS011;38032;53.326;6.472;2023-05-10T04:12:46;9.35;;;8.25;;
52015;SDS011;38032;53.326;6.472;2023-05-10T04:15:12;10.25;;;7.63;;
52015;SDS011;38032;53.326;6.472;2023-05-10T04:17:38;8.50;;;7.20;;
52015;SDS011;38032;53.326;6.472;2023-05-10T04:20:04;7.63;;;6.82;;
52015;SDS011;38032;53.326;6.472;2023-05-10T04:22:31;11.68;;;7.85;;
52015;SDS011;38032;53.326;6.472;2023-05-10T04:24:57;9.88;;;7.47;;
52015;SDS011;38032;53.326;6.472;2023-05-10T04:27:23;11.63;;;7.50;;
52015;SDS011;38032;53.326;6.472;2023-05-10T04:29:49;10.32;;;7.20;;
52015;SDS011;38032;53.326;6.472;2023-05-10T04:32:15;10.40;;;7.35;;
52015;SDS011;38032;53.326;6.472;2023-05-10T04:34:42;9.70;;;7.63;;
52015;SDS011;38032;53.326;6.472;2023-05-10T04:37:08;10.45;;;7.80;;
52015;SDS011;38032;53.326;6.472;2023-05-10T04:39:34;9.90;;;8.32;;
52015;SDS011;38032;53.326;6.472;2023-05-10T04:42:01;10.40;;;8.25;;
52015;SDS011;38032;53.326;6.472;2023-05-10T04:44:28;11.15;;;8.18;;
52015;SDS011;38032;53.326;6.472;2023-05-10T04:46:54;10.52;;;8.40;;
52015;SDS011;38032;53.326;6.472;2023-05-10T04:49:20;9.88;;;8.10;;
52015;SDS011;38032;53.326;6.472;2023-05-10T04:51:46;9.07;;;7.90;;
52015;SDS011;38032;53.326;6.472;2023-05-10T04:54:12;10.43;;;7.78;;
52015;SDS011;38032;53.326;6.472;2023-05-10T04:56:38;9.50;;;7.47;;
52015;SDS011;38032;53.326;6.472;2023-05-10T04:59:04;8.00;;;7.03;;
52015;SDS011;38032;53.326;6.472;2023-05-10T05:01:30;7.88;;;7.03;;
52015;SDS011;38032;53.326;6.472;2023-05-10T05:03:56;8.48;;;7.22;;
52015;SDS011;38032;53.326;6.472;2023-05-10T05:06:21;8.00;;;6.43;;
52015;SDS011;38032;53.326;6.472;2023-05-10T05:08:49;7.53;;;5.80;;
52015;SDS011;38032;53.326;6.472;2023-05-10T05:11:16;6.30;;;5.40;;
52015;SDS011;38032;53.326;6.472;2023-05-10T05:13:42;6.60;;;4.18;;
52015;SDS011;38032;53.326;6.472;2023-05-10T05:16:09;3.92;;;2.53;;
52015;SDS011;38032;53.326;6.472;2023-05-10T05:18:35;3.40;;;2.55;;
52015;SDS011;38032;53.326;6.472;2023-05-10T05:21:01;2.63;;;1.95;;
52015;SDS011;38032;53.326;6.472;2023-05-10T05:23:27;2.70;;;1.92;;
52015;SDS011;38032;53.326;6.472;2023-05-10T05:25:53;2.72;;;2.10;;
52015;SDS011;38032;53.326;6.472;2023-05-10T05:28:19;2.30;;;1.85;;
52015;SDS011;38032;53.326;6.472;2023-05-10T05:30:46;2.40;;;1.80;;
52015;SDS011;38032;53.326;6.472;2023-05-10T05:33:13;2.50;;;1.65;;
52015;SDS011;38032;53.326;6.472;2023-05-10T05:35:40;2.70;;;1.80;;
52015;SDS011;38032;53.326;6.472;2023-05-10T05:38:08;2.13;;;1.70;;
52015;SDS011;38032;53.326;6.472;2023-05-10T05:40:33;2.90;;;1.60;;
52015;SDS011;38032;53.326;6.472;2023-05-10T05:42:59;2.67;;;1.80;;
52015;SDS011;38032;53.326;6.472;2023-05-10T05:45:25;2.60;;;1.90;;
52015;SDS011;38032;53.326;6.472;2023-05-10T05:47:51;2.00;;;1.70;;
52015;SDS011;38032;53.326;6.472;2023-05-10T05:50:17;2.97;;;2.10;;
52015;SDS011;38032;53.326;6.472;2023-05-10T05:52:43;3.35;;;2.42;;
52015;SDS011;38032;53.326;6.472;2023-05-10T05:55:09;5.18;;;2.80;;
52015;SDS011;38032;53.326;6.472;2023-05-10T05:57:34;4.65;;;3.83;;
52015;SDS011;38032;53.326;6.472;2023-05-10T06:00:00;4.07;;;3.30;;
52015;SDS011;38032;53.326;6.472;2023-05-10T06:02:27;3.75;;;3.20;;
52015;SDS011;38032;53.326;6.472;2023-05-10T06:04:53;3.05;;;2.50;;
52015;SDS011;38032;53.326;6.472;2023-05-10T06:07:19;6.00;;;2.75;;
52015;SDS011;38032;53.326;6.472;2023-05-10T06:09:45;3.35;;;2.90;;
52015;SDS011;38032;53.326;6.472;2023-05-10T06:12:11;5.20;;;3.63;;
52015;SDS011;38032;53.326;6.472;2023-05-10T06:14:37;5.10;;;4.43;;
52015;SDS011;38032;53.326;6.472;2023-05-10T06:17:02;6.20;;;5.60;;
52015;SDS011;38032;53.326;6.472;2023-05-10T06:19:30;8.02;;;6.82;;
52015;SDS011;38032;53.326;6.472;2023-05-10T06:21:56;8.23;;;7.32;;
52015;SDS011;38032;53.326;6.472;2023-05-10T06:24:21;10.38;;;9.15;;
52015;SDS011;38032;53.326;6.472;2023-05-10T06:26:47;10.35;;;9.35;;
52015;SDS011;38032;53.326;6.472;2023-05-10T06:29:15;10.10;;;9.10;;
52015;SDS011;38032;53.326;6.472;2023-05-10T06:31:40;8.07;;;7.28;;
52015;SDS011;38032;53.326;6.472;2023-05-10T06:34:06;8.10;;;7.15;;
52015;SDS011;38032;53.326;6.472;2023-05-10T06:36:33;7.13;;;6.43;;
52015;SDS011;38032;53.326;6.472;2023-05-10T06:38:59;7.63;;;6.93;;
52015;SDS011;38032;53.326;6.472;2023-05-10T06:41:25;6.60;;;5.50;;
52015;SDS011;38032;53.326;6.472;2023-05-10T06:43:51;5.60;;;5.10;;
52015;SDS011;38032;53.326;6.472;2023-05-10T06:46:17;6.18;;;4.90;;
52015;SDS011;38032;53.326;6.472;2023-05-10T06:48:42;5.30;;;4.80;;
52015;SDS011;38032;53.326;6.472;2023-05-10T06:51:08;5.35;;;4.85;;
52015;SDS011;38032;53.326;6.472;2023-05-10T06:53:34;4.45;;;3.92;;
52015;SDS011;38032;53.326;6.472;2023-05-10T06:56:00;4.90;;;4.25;;
52015;SDS011;38032;53.326;6.472;2023-05-10T06:58:27;4.30;;;3.83;;
52015;SDS011;38032;53.326;6.472;2023-05-10T07:00:53;4.50;;;4.10;;
52015;SDS011;38032;53.326;6.472;2023-05-10T07:03:19;4.65;;;4.25;;
52015;SDS011;38032;53.326;6.472;2023-05-10T07:05:45;5.80;;;4.68;;
52015;SDS011;38032;53.326;6.472;2023-05-10T07:08:11;5.55;;;4.18;;
52015;SDS011;38032;53.326;6.472;2023-05-10T07:10:36;4.38;;;3.97;;
52015;SDS011;38032;53.326;6.472;2023-05-10T07:13:02;4.60;;;4.13;;
52015;SDS011;38032;53.326;6.472;2023-05-10T07:15:28;4.35;;;3.95;;
52015;SDS011;38032;53.326;6.472;2023-05-10T07:17:54;4.20;;;3.45;;
52015;SDS011;38032;53.326;6.472;2023-05-10T07:20:20;3.20;;;2.90;;
52015;SDS011;38032;53.326;6.472;2023-05-10T07:22:46;5.28;;;3.50;;
52015;SDS011;38032;53.326;6.472;2023-05-10T07:25:12;3.75;;;3.00;;
52015;SDS011;38032;53.326;6.472;2023-05-10T07:27:38;3.55;;;2.70;;
52015;SDS011;38032;53.326;6.472;2023-05-10T07:30:04;3.72;;;2.70;;
52015;SDS011;38032;53.326;6.472;2023-05-10T07:32:30;3.10;;;2.70;;
52015;SDS011;38032;53.326;6.472;2023-05-10T07:34:56;3.88;;;2.90;;
52015;SDS011;38032;53.326;6.472;2023-05-10T07:37:22;4.00;;;3.13;;
52015;SDS011;38032;53.326;6.472;2023-05-10T07:39:48;3.40;;;2.90;;
52015;SDS011;38032;53.326;6.472;2023-05-10T07:42:14;5.65;;;3.00;;
52015;SDS011;38032;53.326;6.472;2023-05-10T07:44:40;3.42;;;2.83;;
52015;SDS011;38032;53.326;6.472;2023-05-10T07:47:06;5.07;;;3.50;;
52015;SDS011;38032;53.326;6.472;2023-05-10T07:49:32;3.40;;;2.92;;
52015;SDS011;38032;53.326;6.472;2023-05-10T07:51:58;4.20;;;3.30;;
52015;SDS011;38032;53.326;6.472;2023-05-10T07:54:24;4.55;;;2.80;;
52015;SDS011;38032;53.326;6.472;2023-05-10T07:56:50;4.25;;;2.60;;
52015;SDS011;38032;53.326;6.472;2023-05-10T07:59:16;4.30;;;3.17;;
52015;SDS011;38032;53.326;6.472;2023-05-10T08:01:43;4.18;;;3.38;;
52015;SDS011;38032;53.326;6.472;2023-05-10T08:04:09;3.15;;;2.65;;
52015;SDS011;38032;53.326;6.472;2023-05-10T08:06:36;3.97;;;2.55;;
52015;SDS011;38032;53.326;6.472;2023-05-10T08:09:02;3.40;;;2.42;;
52015;SDS011;38032;53.326;6.472;2023-05-10T08:11:28;3.38;;;2.92;;
52015;SDS011;38032;53.326;6.472;2023-05-10T08:13:54;3.15;;;2.60;;
52015;SDS011;38032;53.326;6.472;2023-05-10T08:16:20;4.13;;;2.38;;
52015;SDS011;38032;53.326;6.472;2023-05-10T08:18:46;2.63;;;2.00;;
52015;SDS011;38032;53.326;6.472;2023-05-10T08:21:13;2.95;;;2.38;;
52015;SDS011;38032;53.326;6.472;2023-05-10T08:23:39;3.67;;;2.20;;
52015;SDS011;38032;53.326;6.472;2023-05-10T08:26:05;3.88;;;2.38;;
52015;SDS011;38032;53.326;6.472;2023-05-10T08:28:32;3.67;;;2.03;;
52015;SDS011;38032;53.326;6.472;2023-05-10T08:30:58;2.72;;;1.85;;
52015;SDS011;38032;53.326;6.472;2023-05-10T08:33:23;2.58;;;1.58;;
52015;SDS011;38032;53.326;6.472;2023-05-10T08:35:50;3.05;;;1.40;;
52015;SDS011;38032;53.326;6.472;2023-05-10T08:38:15;2.83;;;1.85;;
52015;SDS011;38032;53.326;6.472;2023-05-10T08:40:42;3.10;;;1.40;;
52015;SDS011;38032;53.326;6.472;2023-05-10T08:43:11;3.20;;;1.90;;
52015;SDS011;38032;53.326;6.472;2023-05-10T08:45:40;3.08;;;2.00;;
52015;SDS011;38032;53.326;6.472;2023-05-10T08:48:08;4.47;;;2.50;;
52015;SDS011;38032;53.326;6.472;2023-05-10T08:50:35;3.45;;;1.80;;
52015;SDS011;38032;53.326;6.472;2023-05-10T08:53:04;2.45;;;1.83;;
52015;SDS011;38032;53.326;6.472;2023-05-10T08:55:32;4.10;;;2.40;;
52015;SDS011;38032;53.326;6.472;2023-05-10T08:57:59;3.40;;;2.60;;
52015;SDS011;38032;53.326;6.472;2023-05-10T09:00:25;5.07;;;2.47;;
52015;SDS011;38032;53.326;6.472;2023-05-10T09:02:52;3.80;;;2.80;;
52015;SDS011;38032;53.326;6.472;2023-05-10T09:05:18;3.88;;;2.65;;
52015;SDS011;38032;53.326;6.472;2023-05-10T09:07:44;3.53;;;2.58;;
52015;SDS011;38032;53.326;6.472;2023-05-10T09:10:10;4.38;;;3.00;;
52015;SDS011;38032;53.326;6.472;2023-05-10T09:12:37;4.55;;;3.13;;
52015;SDS011;38032;53.326;6.472;2023-05-10T09:15:03;4.05;;;2.85;;
52015;SDS011;38032;53.326;6.472;2023-05-10T09:17:30;3.50;;;2.80;;
52015;SDS011;38032;53.326;6.472;2023-05-10T09:19:58;3.80;;;3.03;;
52015;SDS011;38032;53.326;6.472;2023-05-10T09:22:24;4.53;;;3.13;;
52015;SDS011;38032;53.326;6.472;2023-05-10T09:25:08;4.45;;;2.78;;
52015;SDS011;38032;53.326;6.472;2023-05-10T09:27:37;3.47;;;2.30;;
52015;SDS011;38032;53.326;6.472;2023-05-10T09:30:04;4.60;;;2.90;;
52015;SDS011;38032;53.326;6.472;2023-05-10T09:32:40;4.85;;;3.03;;
52015;SDS011;38032;53.326;6.472;2023-05-10T09:35:09;4.93;;;2.17;;
52015;SDS011;38032;53.326;6.472;2023-05-10T09:37:36;4.22;;;2.65;;
52015;SDS011;38032;53.326;6.472;2023-05-10T09:40:07;4.00;;;2.50;;
52015;SDS011;38032;53.326;6.472;2023-05-10T09:42:36;4.60;;;2.50;;
52015;SDS011;38032;53.326;6.472;2023-05-10T09:45:08;3.35;;;2.22;;
52015;SDS011;38032;53.326;6.472;2023-05-10T09:47:34;2.75;;;1.85;;
52015;SDS011;38032;53.326;6.472;2023-05-10T09:50:02;2.85;;;1.77;;
52015;SDS011;38032;53.326;6.472;2023-05-10T09:52:29;2.63;;;1.98;;
52015;SDS011;38032;53.326;6.472;2023-05-10T09:54:56;2.92;;;1.80;;
52015;SDS011;38032;53.326;6.472;2023-05-10T09:57:22;2.60;;;1.60;;
52015;SDS011;38032;53.326;6.472;2023-05-10T09:59:50;2.63;;;1.60;;
52015;SDS011;38032;53.326;6.472;2023-05-10T10:02:16;1.88;;;1.38;;
52015;SDS011;38032;53.326;6.472;2023-05-10T10:04:42;2.00;;;1.40;;
52015;SDS011;38032;53.326;6.472;2023-05-10T10:07:09;2.03;;;1.33;;
52015;SDS011;38032;53.326;6.472;2023-05-10T10:09:35;2.67;;;1.45;;
52015;SDS011;38032;53.326;6.472;2023-05-10T10:12:02;2.83;;;1.70;;
52015;SDS011;38032;53.326;6.472;2023-05-10T10:14:29;2.78;;;1.63;;
52015;SDS011;38032;53.326;6.472;2023-05-10T10:16:55;3.55;;;2.30;;
52015;SDS011;38032;53.326;6.472;2023-05-10T10:19:21;3.65;;;2.20;;
52015;SDS011;38032;53.326;6.472;2023-05-10T10:21:47;3.42;;;2.20;;
52015;SDS011;38032;53.326;6.472;2023-05-10T10:24:14;3.05;;;2.35;;
52015;SDS011;38032;53.326;6.472;2023-05-10T10:26:41;3.40;;;2.50;;
52015;SDS011;38032;53.326;6.472;2023-05-10T10:31:51;4.90;;;2.47;;
52015;SDS011;38032;53.326;6.472;2023-05-10T10:34:34;3.95;;;2.70;;
52015;SDS011;38032;53.326;6.472;2023-05-10T10:37:04;8.80;;;3.30;;
52015;SDS011;38032;53.326;6.472;2023-05-10T10:39:31;5.88;;;3.92;;
52015;SDS011;38032;53.326;6.472;2023-05-10T10:41:58;5.43;;;3.60;;
52015;SDS011;38032;53.326;6.472;2023-05-10T10:44:28;4.90;;;2.97;;
52015;SDS011;38032;53.326;6.472;2023-05-10T10:47:05;4.03;;;3.10;;
52015;SDS011;38032;53.326;6.472;2023-05-10T10:52:25;5.03;;;4.10;;
52015;SDS011;38032;53.326;6.472;2023-05-10T10:57:28;8.45;;;5.07;;
52015;SDS011;38032;53.326;6.472;2023-05-10T11:02:53;8.60;;;5.25;;
52015;SDS011;38032;53.326;6.472;2023-05-10T11:08:08;6.88;;;4.88;;
52015;SDS011;38032;53.326;6.472;2023-05-10T11:10:37;9.35;;;6.15;;
52015;SDS011;38032;53.326;6.472;2023-05-10T11:13:06;7.00;;;5.85;;
52015;SDS011;38032;53.326;6.472;2023-05-10T11:15:35;8.18;;;5.90;;
52015;SDS011;38032;53.326;6.472;2023-05-10T11:18:19;8.00;;;6.35;;
52015;SDS011;38032;53.326;6.472;2023-05-10T11:20:50;10.52;;;6.72;;
52015;SDS011;38032;53.326;6.472;2023-05-10T11:23:17;9.30;;;6.82;;
52015;SDS011;38032;53.326;6.472;2023-05-10T11:25:43;11.93;;;7.22;;
52015;SDS011;38032;53.326;6.472;2023-05-10T11:28:12;8.70;;;7.30;;
52015;SDS011;38032;53.326;6.472;2023-05-10T11:30:38;10.60;;;7.78;;
52015;SDS011;38032;53.326;6.472;2023-05-10T11:33:06;10.43;;;7.10;;
52015;SDS011;38032;53.326;6.472;2023-05-10T11:35:36;10.63;;;7.35;;
52015;SDS011;38032;53.326;6.472;2023-05-10T11:38:06;9.65;;;7.50;;
52015;SDS011;38032;53.326;6.472;2023-05-10T11:40:33;11.63;;;7.30;;
52015;SDS011;38032;53.326;6.472;2023-05-10T11:42:59;10.93;;;7.70;;
52015;SDS011;38032;53.326;6.472;2023-05-10T11:45:25;9.40;;;7.05;;
52015;SDS011;38032;53.326;6.472;2023-05-10T11:47:52;11.05;;;8.25;;
52015;SDS011;38032;53.326;6.472;2023-05-10T11:50:18;11.00;;;7.55;;
52015;SDS011;38032;53.326;6.472;2023-05-10T11:52:44;9.95;;;7.65;;
52015;SDS011;38032;53.326;6.472;2023-05-10T11:55:10;11.45;;;8.18;;
52015;SDS011;38032;53.326;6.472;2023-05-10T11:57:37;10.07;;;7.75;;
52015;SDS011;38032;53.326;6.472;2023-05-10T12:00:03;9.57;;;8.13;;
52015;SDS011;38032;53.326;6.472;2023-05-10T12:02:30;10.82;;;7.35;;
52015;SDS011;38032;53.326;6.472;2023-05-10T12:04:56;10.75;;;7.50;;
52015;SDS011;38032;53.326;6.472;2023-05-10T12:07:22;10.98;;;8.23;;
52015;SDS011;38032;53.326;6.472;2023-05-10T12:12:37;10.52;;;7.82;;
52015;SDS011;38032;53.326;6.472;2023-05-10T12:15:09;11.30;;;8.40;;
52015;SDS011;38032;53.326;6.472;2023-05-10T12:17:37;11.88;;;8.95;;
52015;SDS011;38032;53.326;6.472;2023-05-10T12:20:16;10.65;;;7.30;;
52015;SDS011;38032;53.326;6.472;2023-05-10T12:22:51;10.80;;;8.40;;
52015;SDS011;38032;53.326;6.472;2023-05-10T12:25:19;10.70;;;7.50;;
52015;SDS011;38032;53.326;6.472;2023-05-10T12:27:51;11.32;;;7.75;;
52015;SDS011;38032;53.326;6.472;2023-05-10T12:30:19;10.27;;;7.18;;
52015;SDS011;38032;53.326;6.472;2023-05-10T12:32:53;9.32;;;6.65;;
52015;SDS011;38032;53.326;6.472;2023-05-10T12:35:24;7.32;;;6.22;;
52015;SDS011;38032;53.326;6.472;2023-05-10T12:37:50;8.23;;;6.18;;
52015;SDS011;38032;53.326;6.472;2023-05-10T12:40:17;7.47;;;5.65;;
52015;SDS011;38032;53.326;6.472;2023-05-10T12:42:43;7.78;;;5.95;;
52015;SDS011;38032;53.326;6.472;2023-05-10T12:45:10;8.93;;;6.88;;
52015;SDS011;38032;53.326;6.472;2023-05-10T12:47:37;8.38;;;6.10;;
52015;SDS011;38032;53.326;6.472;2023-05-10T12:50:03;8.27;;;5.80;;
52015;SDS011;38032;53.326;6.472;2023-05-10T12:52:30;9.15;;;5.50;;
52015;SDS011;38032;53.326;6.472;2023-05-10T12:54:57;6.88;;;5.25;;
52015;SDS011;38032;53.326;6.472;2023-05-10T12:57:24;6.97;;;4.95;;
52015;SDS011;38032;53.326;6.472;2023-05-10T12:59:50;6.32;;;4.50;;
52015;SDS011;38032;53.326;6.472;2023-05-10T13:02:16;6.20;;;4.53;;
52015;SDS011;38032;53.326;6.472;2023-05-10T13:04:43;6.60;;;4.90;;
52015;SDS011;38032;53.326;6.472;2023-05-10T13:07:10;8.65;;;4.50;;
52015;SDS011;38032;53.326;6.472;2023-05-10T13:09:36;5.60;;;4.10;;
52015;SDS011;38032;53.326;6.472;2023-05-10T13:12:01;5.57;;;4.05;;
52015;SDS011;38032;53.326;6.472;2023-05-10T13:14:28;5.43;;;4.32;;
52015;SDS011;38032;53.326;6.472;2023-05-10T13:16:55;7.22;;;4.30;;
52015;SDS011;38032;53.326;6.472;2023-05-10T13:19:21;5.38;;;3.95;;
52015;SDS011;38032;53.326;6.472;2023-05-10T13:21:47;5.65;;;4.60;;
52015;SDS011;38032;53.326;6.472;2023-05-10T13:24:12;6.25;;;5.47;;
52015;SDS011;38032;53.326;6.472;2023-05-10T13:26:39;7.05;;;5.15;;
52015;SDS011;38032;53.326;6.472;2023-05-10T13:29:06;6.72;;;4.68;;
52015;SDS011;38032;53.326;6.472;2023-05-10T13:31:33;8.73;;;5.63;;
52015;SDS011;38032;53.326;6.472;2023-05-10T13:33:59;5.68;;;4.22;;
52015;SDS011;38032;53.326;6.472;2023-05-10T13:36:25;5.93;;;4.93;;
52015;SDS011;38032;53.326;6.472;2023-05-10T13:38:51;7.38;;;5.30;;
52015;SDS011;38032;53.326;6.472;2023-05-10T13:41:17;9.00;;;6.00;;
52015;SDS011;38032;53.326;6.472;2023-05-10T13:43:43;8.18;;;5.80;;
52015;SDS011;38032;53.326;6.472;2023-05-10T13:46:09;7.15;;;5.65;;
52015;SDS011;38032;53.326;6.472;2023-05-10T13:48:35;6.85;;;5.18;;
52015;SDS011;38032;53.326;6.472;2023-05-10T13:51:02;7.07;;;5.90;;
52015;SDS011;38032;53.326;6.472;2023-05-10T13:53:28;7.82;;;6.40;;
52015;SDS011;38032;53.326;6.472;2023-05-10T13:55:54;9.38;;;6.65;;
52015;SDS011;38032;53.326;6.472;2023-05-10T13:58:20;10.75;;;7.45;;
52015;SDS011;38032;53.326;6.472;2023-05-10T14:00:46;11.73;;;8.27;;
52015;SDS011;38032;53.326;6.472;2023-05-10T14:03:12;10.15;;;8.02;;
52015;SDS011;38032;53.326;6.472;2023-05-10T14:05:37;9.45;;;7.53;;
52015;SDS011;38032;53.326;6.472;2023-05-10T14:08:03;13.77;;;9.77;;
52015;SDS011;38032;53.326;6.472;2023-05-10T14:10:29;10.18;;;8.27;;
52015;SDS011;38032;53.326;6.472;2023-05-10T14:12:55;11.40;;;8.60;;
52015;SDS011;38032;53.326;6.472;2023-05-10T14:15:21;13.68;;;10.07;;
52015;SDS011;38032;53.326;6.472;2023-05-10T14:17:47;10.52;;;7.80;;
52015;SDS011;38032;53.326;6.472;2023-05-10T14:20:13;9.63;;;7.72;;
52015;SDS011;38032;53.326;6.472;2023-05-10T14:22:38;10.65;;;8.55;;
52015;SDS011;38032;53.326;6.472;2023-05-10T14:25:05;9.43;;;7.93;;
52015;SDS011;38032;53.326;6.472;2023-05-10T14:27:31;9.90;;;7.53;;
52015;SDS011;38032;53.326;6.472;2023-05-10T14:29:57;10.30;;;8.70;;
52015;SDS011;38032;53.326;6.472;2023-05-10T14:32:23;11.40;;;8.25;;
52015;SDS011;38032;53.326;6.472;2023-05-10T14:34:49;10.52;;;8.55;;
52015;SDS011;38032;53.326;6.472;2023-05-10T14:37:15;10.30;;;8.70;;
52015;SDS011;38032;53.326;6.472;2023-05-10T14:39:41;10.63;;;8.40;;
52015;SDS011;38032;53.326;6.472;2023-05-10T14:42:08;10.68;;;7.80;;
52015;SDS011;38032;53.326;6.472;2023-05-10T14:44:34;7.10;;;6.13;;
52015;SDS011;38032;53.326;6.472;2023-05-10T14:47:00;7.55;;;6.55;;
52015;SDS011;38032;53.326;6.472;2023-05-10T14:49:25;8.63;;;7.13;;
52015;SDS011;38032;53.326;6.472;2023-05-10T14:51:52;10.32;;;7.68;;
52015;SDS011;38032;53.326;6.472;2023-05-10T14:54:18;8.70;;;5.53;;
52015;SDS011;38032;53.326;6.472;2023-05-10T14:56:44;6.32;;;5.70;;
52015;SDS011;38032;53.326;6.472;2023-05-10T14:59:10;4.93;;;4.25;;
52015;SDS011;38032;53.326;6.472;2023-05-10T15:01:36;7.53;;;6.20;;
52015;SDS011;38032;53.326;6.472;2023-05-10T15:04:03;6.90;;;5.82;;
52015;SDS011;38032;53.326;6.472;2023-05-10T15:06:30;6.70;;;5.55;;